sensor_id;sensor_type;location;lat;lon;timestamp;pressure;altitude;pressure_sealevel;temperature;humidity
5455;BME280;2750;49.050;9.250;2023-04-03T00:03:28;99597.78;;;5.47;78.65
5455;BME280;2750;49.050;9.250;2023-04-03T00:08:29;99594.19;;;5.58;78.25
5455;BME280;2750;49.050;9.250;2023-04-03T00:13:33;99593.56;;;5.40;79.39
5455;BME280;2750;49.050;9.250;2023-04-03T00:18:37;99601.09;;;5.55;78.87
5455;BME280;2750;49.050;9.250;2023-04-03T00:23:38;99605.72;;;5.28;80.03
5455;BME280;2750;49.050;9.250;2023-04-03T00:28:40;99601.22;;;5.46;79.29
5455;BME280;2750;49.050;9.250;2023-04-03T00:33:43;99603.81;;;5.44;79.96
5455;BME280;2750;49.050;9.250;2023-04-03T00:38:44;99605.44;;;5.51;79.18
5455;BME280;2750;49.050;9.250;2023-04-03T00:43:46;99594.72;;;5.17;80.01
5455;BME280;2750;49.050;9.250;2023-04-03T00:48:49;99613.50;;;5.22;80.11
5455;BME280;2750;49.050;9.250;2023-04-03T00:53:55;99601.53;;;5.18;80.20
5455;BME280;2750;49.050;9.250;2023-04-03T00:59:02;99604.78;;;5.34;80.04
5455;BME280;2750;49.050;9.250;2023-04-03T01:04:27;99615.25;;;5.19;80.17
5455;BME280;2750;49.050;9.250;2023-04-03T01:09:29;99605.13;;;5.05;80.24
5455;BME280;2750;49.050;9.250;2023-04-03T01:14:31;99604.06;;;5.21;79.72
5455;BME280;2750;49.050;9.250;2023-04-03T01:19:36;99604.09;;;5.20;80.06
5455;BME280;2750;49.050;9.250;2023-04-03T01:24:40;99603.28;;;5.16;79.87
5455;BME280;2750;49.050;9.250;2023-04-03T01:29:42;99603.38;;;5.07;79.90
5455;BME280;2750;49.050;9.250;2023-04-03T01:34:45;99617.41;;;4.79;81.26
5455;BME280;2750;49.050;9.250;2023-04-03T01:39:47;99628.66;;;4.67;81.29
5455;BME280;2750;49.050;9.250;2023-04-03T01:44:49;99621.53;;;4.92;81.21
5455;BME280;2750;49.050;9.250;2023-04-03T01:49:51;99632.69;;;5.66;79.36
5455;BME280;2750;49.050;9.250;2023-04-03T01:54:53;99637.34;;;6.05;77.81
5455;BME280;2750;49.050;9.250;2023-04-03T01:59:54;99627.91;;;6.03;76.38
5455;BME280;2750;49.050;9.250;2023-04-03T02:04:57;99634.47;;;6.23;76.14
5455;BME280;2750;49.050;9.250;2023-04-03T02:09:59;99632.16;;;6.60;75.58
5455;BME280;2750;49.050;9.250;2023-04-03T02:15:00;99626.31;;;6.49;74.74
5455;BME280;2750;49.050;9.250;2023-04-03T02:20:04;99624.94;;;6.81;73.88
5455;BME280;2750;49.050;9.250;2023-04-03T02:25:06;99633.16;;;6.52;74.45
5455;BME280;2750;49.050;9.250;2023-04-03T02:30:08;99631.34;;;6.58;73.71
5455;BME280;2750;49.050;9.250;2023-04-03T02:35:12;99642.84;;;6.87;73.51
5455;BME280;2750;49.050;9.250;2023-04-03T02:40:13;99639.69;;;6.19;74.21
5455;BME280;2750;49.050;9.250;2023-04-03T02:45:15;99638.31;;;5.95;74.80
5455;BME280;2750;49.050;9.250;2023-04-03T02:50:18;99642.94;;;6.32;74.68
5455;BME280;2750;49.050;9.250;2023-04-03T02:55:20;99638.16;;;6.59;74.43
5455;BME280;2750;49.050;9.250;2023-04-03T03:00:21;99641.66;;;6.57;74.06
5455;BME280;2750;49.050;9.250;2023-04-03T03:05:24;99641.91;;;6.42;75.35
5455;BME280;2750;49.050;9.250;2023-04-03T03:10:26;99637.47;;;6.51;74.47
5455;BME280;2750;49.050;9.250;2023-04-03T03:15:28;99627.47;;;6.32;75.03
5455;BME280;2750;49.050;9.250;2023-04-03T03:20:30;99636.25;;;6.18;74.86
5455;BME280;2750;49.050;9.250;2023-04-03T03:25:32;99621.66;;;6.17;75.53
5455;BME280;2750;49.050;9.250;2023-04-03T03:30:34;99621.84;;;6.07;75.40
5455;BME280;2750;49.050;9.250;2023-04-03T03:35:37;99631.06;;;6.21;75.58
5455;BME280;2750;49.050;9.250;2023-04-03T03:40:38;99617.34;;;6.19;75.23
5455;BME280;2750;49.050;9.250;2023-04-03T03:45:40;99617.91;;;5.80;76.19
5455;BME280;2750;49.050;9.250;2023-04-03T03:50:43;99620.44;;;5.83;75.85
5455;BME280;2750;49.050;9.250;2023-04-03T03:55:44;99620.47;;;6.40;74.60
5455;BME280;2750;49.050;9.250;2023-04-03T04:00:46;99618.53;;;6.54;75.09
5455;BME280;2750;49.050;9.250;2023-04-03T04:05:49;99628.47;;;6.24;75.24
5455;BME280;2750;49.050;9.250;2023-04-03T04:10:51;99639.47;;;5.71;77.08
5455;BME280;2750;49.050;9.250;2023-04-03T04:15:52;99620.34;;;5.92;75.64
5455;BME280;2750;49.050;9.250;2023-04-03T04:20:55;99632.00;;;5.53;75.93
5455;BME280;2750;49.050;9.250;2023-04-03T04:25:57;99638.13;;;4.61;77.38
5455;BME280;2750;49.050;9.250;2023-04-03T04:30:59;99641.38;;;4.81;77.79
5455;BME280;2750;49.050;9.250;2023-04-03T04:36:02;99640.59;;;4.71;77.98
5455;BME280;2750;49.050;9.250;2023-04-03T04:41:04;99649.16;;;4.72;77.56
5455;BME280;2750;49.050;9.250;2023-04-03T04:46:06;99649.03;;;4.84;77.46
5455;BME280;2750;49.050;9.250;2023-04-03T04:51:10;99643.75;;;5.01;77.58
5455;BME280;2750;49.050;9.250;2023-04-03T04:56:12;99640.44;;;4.88;76.94
5455;BME280;2750;49.050;9.250;2023-04-03T05:01:13;99644.66;;;4.97;77.42
5455;BME280;2750;49.050;9.250;2023-04-03T05:06:16;99648.06;;;4.97;77.14
5455;BME280;2750;49.050;9.250;2023-04-03T05:11:18;99654.81;;;5.07;77.31
5455;BME280;2750;49.050;9.250;2023-04-03T05:16:20;99653.75;;;5.28;76.25
5455;BME280;2750;49.050;9.250;2023-04-03T05:21:23;99651.91;;;5.39;75.49
5455;BME280;2750;49.050;9.250;2023-04-03T05:26:26;99657.63;;;4.83;76.48
5455;BME280;2750;49.050;9.250;2023-04-03T05:31:28;99659.28;;;4.90;76.77
5455;BME280;2750;49.050;9.250;2023-04-03T05:36:31;99660.97;;;4.94;75.95
5455;BME280;2750;49.050;9.250;2023-04-03T05:41:33;99673.78;;;4.97;76.92
5455;BME280;2750;49.050;9.250;2023-04-03T05:46:35;99672.78;;;5.13;76.22
5455;BME280;2750;49.050;9.250;2023-04-03T05:51:39;99679.06;;;4.82;77.41
5455;BME280;2750;49.050;9.250;2023-04-03T05:56:41;99675.66;;;4.78;77.93
5455;BME280;2750;49.050;9.250;2023-04-03T06:01:42;99678.78;;;5.12;77.18
5455;BME280;2750;49.050;9.250;2023-04-03T06:06:47;99688.94;;;5.24;77.30
5455;BME280;2750;49.050;9.250;2023-04-03T06:11:49;99686.66;;;5.73;76.26
5455;BME280;2750;49.050;9.250;2023-04-03T06:16:52;99694.28;;;5.81;76.67
5455;BME280;2750;49.050;9.250;2023-04-03T06:21:55;99693.06;;;5.38;77.34
5455;BME280;2750;49.050;9.250;2023-04-03T06:26:57;99686.81;;;5.60;77.42
5455;BME280;2750;49.050;9.250;2023-04-03T06:31:59;99694.16;;;5.93;78.04
5455;BME280;2750;49.050;9.250;2023-04-03T06:37:01;99699.53;;;5.72;78.03
5455;BME280;2750;49.050;9.250;2023-04-03T06:42:03;99705.72;;;5.56;78.98
5455;BME280;2750;49.050;9.250;2023-04-03T06:47:05;99707.56;;;5.48;78.55
5455;BME280;2750;49.050;9.250;2023-04-03T06:52:08;99707.09;;;5.86;79.22
5455;BME280;2750;49.050;9.250;2023-04-03T06:57:10;99710.03;;;5.55;78.81
5455;BME280;2750;49.050;9.250;2023-04-03T07:02:11;99711.72;;;5.56;79.83
5455;BME280;2750;49.050;9.250;2023-04-03T07:07:15;99709.56;;;5.98;78.58
5455;BME280;2750;49.050;9.250;2023-04-03T07:12:17;99721.91;;;6.34;78.85
5455;BME280;2750;49.050;9.250;2023-04-03T07:17:19;99730.28;;;5.86;79.08
5455;BME280;2750;49.050;9.250;2023-04-03T07:22:22;99733.72;;;5.83;79.45
5455;BME280;2750;49.050;9.250;2023-04-03T07:27:23;99735.69;;;6.90;75.89
5455;BME280;2750;49.050;9.250;2023-04-03T07:32:25;99744.09;;;7.01;75.86
5455;BME280;2750;49.050;9.250;2023-04-03T07:37:28;99744.84;;;6.54;76.79
5455;BME280;2750;49.050;9.250;2023-04-03T07:42:29;99756.53;;;6.74;76.32
5455;BME280;2750;49.050;9.250;2023-04-03T07:47:31;99752.63;;;6.51;76.21
5455;BME280;2750;49.050;9.250;2023-04-03T07:52:34;99757.66;;;7.12;75.05
5455;BME280;2750;49.050;9.250;2023-04-03T07:57:36;99759.09;;;6.76;76.07
5455;BME280;2750;49.050;9.250;2023-04-03T08:02:37;99750.81;;;6.56;74.73
5455;BME280;2750;49.050;9.250;2023-04-03T08:07:40;99768.94;;;6.50;75.14
5455;BME280;2750;49.050;9.250;2023-04-03T08:12:45;99754.03;;;6.70;75.03
5455;BME280;2750;49.050;9.250;2023-04-03T08:17:47;99747.47;;;6.51;74.14
5455;BME280;2750;49.050;9.250;2023-04-03T08:22:50;99748.88;;;6.70;73.51
5455;BME280;2750;49.050;9.250;2023-04-03T08:27:51;99752.44;;;7.16;73.66
5455;BME280;2750;49.050;9.250;2023-04-03T08:32:53;99760.03;;;7.24;72.66
5455;BME280;2750;49.050;9.250;2023-04-03T08:37:56;99752.84;;;7.40;72.34
5455;BME280;2750;49.050;9.250;2023-04-03T08:43:08;99755.59;;;8.20;70.18
5455;BME280;2750;49.050;9.250;2023-04-03T08:48:19;99757.28;;;8.62;69.11
5455;BME280;2750;49.050;9.250;2023-04-03T08:53:25;99757.09;;;8.31;69.35
5455;BME280;2750;49.050;9.250;2023-04-03T08:58:30;99760.63;;;8.26;69.76
5455;BME280;2750;49.050;9.250;2023-04-03T09:03:37;99760.31;;;8.79;68.92
5455;BME280;2750;49.050;9.250;2023-04-03T09:08:44;99752.94;;;8.62;68.79
5455;BME280;2750;49.050;9.250;2023-04-03T09:13:49;99770.75;;;8.76;67.16
5455;BME280;2750;49.050;9.250;2023-04-03T09:18:57;99760.41;;;9.44;67.01
5455;BME280;2750;49.050;9.250;2023-04-03T09:24:06;99761.34;;;8.34;66.60
5455;BME280;2750;49.050;9.250;2023-04-03T09:29:08;99759.25;;;8.88;66.04
5455;BME280;2750;49.050;9.250;2023-04-03T09:34:20;99763.19;;;8.67;67.20
5455;BME280;2750;49.050;9.250;2023-04-03T09:39:26;99764.63;;;8.42;68.70
5455;BME280;2750;49.050;9.250;2023-04-03T09:44:30;99759.66;;;8.33;68.09
5455;BME280;2750;49.050;9.250;2023-04-03T09:49:32;99761.09;;;8.83;67.77
5455;BME280;2750;49.050;9.250;2023-04-03T09:54:37;99753.16;;;9.24;65.60
5455;BME280;2750;49.050;9.250;2023-04-03T09:59:44;99760.59;;;8.67;67.28
5455;BME280;2750;49.050;9.250;2023-04-03T10:04:47;99755.34;;;7.90;68.82
5455;BME280;2750;49.050;9.250;2023-04-03T10:09:56;99757.94;;;8.32;69.24
5455;BME280;2750;49.050;9.250;2023-04-03T10:14:59;99756.94;;;8.39;68.58
5455;BME280;2750;49.050;9.250;2023-04-03T10:20:08;99754.47;;;8.33;68.38
5455;BME280;2750;49.050;9.250;2023-04-03T10:25:19;99759.78;;;7.82;69.37
5455;BME280;2750;49.050;9.250;2023-04-03T10:30:32;99744.22;;;7.87;68.56
5455;BME280;2750;49.050;9.250;2023-04-03T10:35:44;99745.38;;;7.72;69.40
5455;BME280;2750;49.050;9.250;2023-04-03T10:40:55;99739.91;;;8.67;67.48
5455;BME280;2750;49.050;9.250;2023-04-03T10:46:02;99740.47;;;8.43;64.45
5455;BME280;2750;49.050;9.250;2023-04-03T10:51:15;99748.09;;;8.07;66.32
5455;BME280;2750;49.050;9.250;2023-04-03T10:56:28;99737.47;;;7.80;67.34
5455;BME280;2750;49.050;9.250;2023-04-03T11:01:33;99746.38;;;7.63;67.79
5455;BME280;2750;49.050;9.250;2023-04-03T11:06:41;99729.91;;;8.12;65.35
5455;BME280;2750;49.050;9.250;2023-04-03T11:11:46;99732.97;;;7.89;65.52
5455;BME280;2750;49.050;9.250;2023-04-03T11:16:55;99733.56;;;9.16;62.18
5455;BME280;2750;49.050;9.250;2023-04-03T11:22:03;99725.06;;;9.09;60.70
5455;BME280;2750;49.050;9.250;2023-04-03T11:27:15;99717.09;;;9.17;61.69
5455;BME280;2750;49.050;9.250;2023-04-03T11:32:35;99727.88;;;8.66;61.18
5455;BME280;2750;49.050;9.250;2023-04-03T11:37:43;99710.88;;;8.90;61.23
5455;BME280;2750;49.050;9.250;2023-04-03T11:42:49;99709.22;;;9.21;60.02
5455;BME280;2750;49.050;9.250;2023-04-03T11:47:54;99717.97;;;8.83;59.62
5455;BME280;2750;49.050;9.250;2023-04-03T11:52:59;99712.22;;;8.35;60.22
5455;BME280;2750;49.050;9.250;2023-04-03T11:58:13;99706.09;;;8.38;60.21
5455;BME280;2750;49.050;9.250;2023-04-03T12:03:33;99705.75;;;8.53;62.03
5455;BME280;2750;49.050;9.250;2023-04-03T12:08:44;99706.03;;;8.41;60.92
5455;BME280;2750;49.050;9.250;2023-04-03T12:19:34;99688.59;;;8.49;61.58
5455;BME280;2750;49.050;9.250;2023-04-03T12:24:37;99680.13;;;9.44;59.68
5455;BME280;2750;49.050;9.250;2023-04-03T12:29:46;99664.75;;;8.73;57.66
5455;BME280;2750;49.050;9.250;2023-04-03T12:35:01;99667.75;;;8.90;57.78
5455;BME280;2750;49.050;9.250;2023-04-03T12:40:10;99662.81;;;9.13;55.96
5455;BME280;2750;49.050;9.250;2023-04-03T12:45:20;99661.19;;;9.42;55.56
5455;BME280;2750;49.050;9.250;2023-04-03T12:50:27;99670.66;;;9.12;57.60
5455;BME280;2750;49.050;9.250;2023-04-03T12:55:30;99666.50;;;9.68;57.27
5455;BME280;2750;49.050;9.250;2023-04-03T13:00:33;99646.34;;;9.78;55.35
5455;BME280;2750;49.050;9.250;2023-04-03T13:05:38;99649.53;;;9.58;55.32
5455;BME280;2750;49.050;9.250;2023-04-03T13:10:49;99646.69;;;9.95;55.19
5455;BME280;2750;49.050;9.250;2023-04-03T13:15:54;99650.00;;;9.09;54.93
5455;BME280;2750;49.050;9.250;2023-04-03T13:21:02;99650.16;;;9.03;53.03
5455;BME280;2750;49.050;9.250;2023-04-03T13:26:05;99644.47;;;9.23;53.31
5455;BME280;2750;49.050;9.250;2023-04-03T13:31:13;99644.50;;;9.21;53.73
5455;BME280;2750;49.050;9.250;2023-04-03T13:36:21;99642.22;;;9.41;53.88
5455;BME280;2750;49.050;9.250;2023-04-03T13:41:27;99638.00;;;11.27;52.52
5455;BME280;2750;49.050;9.250;2023-04-03T13:46:30;99650.97;;;9.67;56.27
5455;BME280;2750;49.050;9.250;2023-04-03T13:51:38;99643.56;;;8.91;56.88
5455;BME280;2750;49.050;9.250;2023-04-03T13:56:40;99640.59;;;9.68;55.97
5455;BME280;2750;49.050;9.250;2023-04-03T14:01:44;99646.94;;;8.95;55.18
5455;BME280;2750;49.050;9.250;2023-04-03T14:06:48;99641.69;;;9.59;54.49
5455;BME280;2750;49.050;9.250;2023-04-03T14:11:53;99635.72;;;11.66;51.10
5455;BME280;2750;49.050;9.250;2023-04-03T14:16:57;99635.25;;;10.58;52.30
5455;BME280;2750;49.050;9.250;2023-04-03T14:22:11;99633.97;;;9.58;55.35
5455;BME280;2750;49.050;9.250;2023-04-03T14:27:18;99632.44;;;9.51;56.79
5455;BME280;2750;49.050;9.250;2023-04-03T14:32:22;99630.00;;;9.46;55.15
5455;BME280;2750;49.050;9.250;2023-04-03T14:37:28;99624.72;;;9.19;54.19
5455;BME280;2750;49.050;9.250;2023-04-03T14:42:32;99626.91;;;9.01;55.16
5455;BME280;2750;49.050;9.250;2023-04-03T14:47:39;99627.00;;;10.19;52.81
5455;BME280;2750;49.050;9.250;2023-04-03T14:52:44;99606.34;;;10.68;52.43
5455;BME280;2750;49.050;9.250;2023-04-03T14:57:46;99618.22;;;9.93;52.57
5455;BME280;2750;49.050;9.250;2023-04-03T15:02:48;99608.38;;;10.04;51.61
5455;BME280;2750;49.050;9.250;2023-04-03T15:07:54;99603.91;;;11.60;50.05
5455;BME280;2750;49.050;9.250;2023-04-03T15:12:56;99594.22;;;12.10;48.96
5455;BME280;2750;49.050;9.250;2023-04-03T15:17:59;99606.06;;;11.00;50.90
5455;BME280;2750;49.050;9.250;2023-04-03T15:23:02;99613.75;;;9.98;53.35
5455;BME280;2750;49.050;9.250;2023-04-03T15:28:05;99604.88;;;11.11;52.16
5455;BME280;2750;49.050;9.250;2023-04-03T15:33:06;99595.53;;;11.76;51.48
5455;BME280;2750;49.050;9.250;2023-04-03T15:38:10;99601.28;;;10.09;53.42
5455;BME280;2750;49.050;9.250;2023-04-03T15:43:11;99614.03;;;9.31;54.69
5455;BME280;2750;49.050;9.250;2023-04-03T15:48:13;99601.34;;;8.89;55.89
5455;BME280;2750;49.050;9.250;2023-04-03T15:53:16;99601.22;;;9.55;53.62
5455;BME280;2750;49.050;9.250;2023-04-03T15:58:18;99598.53;;;12.31;49.28
5455;BME280;2750;49.050;9.250;2023-04-03T16:03:21;99590.13;;;11.58;49.85
5455;BME280;2750;49.050;9.250;2023-04-03T16:08:25;99589.63;;;10.24;52.99
5455;BME280;2750;49.050;9.250;2023-04-03T16:13:27;99599.50;;;9.25;52.90
5455;BME280;2750;49.050;9.250;2023-04-03T16:18:29;99602.91;;;9.27;52.92
5455;BME280;2750;49.050;9.250;2023-04-03T16:23:32;99610.19;;;9.13;53.90
5455;BME280;2750;49.050;9.250;2023-04-03T16:28:33;99608.38;;;10.32;53.15
5455;BME280;2750;49.050;9.250;2023-04-03T16:33:35;99608.38;;;11.33;52.18
5455;BME280;2750;49.050;9.250;2023-04-03T16:38:39;99603.91;;;9.22;54.92
5455;BME280;2750;49.050;9.250;2023-04-03T16:43:40;99617.69;;;9.82;53.90
5455;BME280;2750;49.050;9.250;2023-04-03T16:48:42;99620.44;;;9.18;54.87
5455;BME280;2750;49.050;9.250;2023-04-03T16:53:45;99619.66;;;8.82;56.11
5455;BME280;2750;49.050;9.250;2023-04-03T16:58:46;99619.31;;;8.25;56.21
5455;BME280;2750;49.050;9.250;2023-04-03T17:03:48;99626.38;;;8.20;55.93
5455;BME280;2750;49.050;9.250;2023-04-03T17:08:51;99631.06;;;8.02;56.13
5455;BME280;2750;49.050;9.250;2023-04-03T17:13:53;99631.19;;;7.96;55.45
5455;BME280;2750;49.050;9.250;2023-04-03T17:18:54;99629.06;;;8.13;55.41
5455;BME280;2750;49.050;9.250;2023-04-03T17:24:01;99627.41;;;8.12;55.47
5455;BME280;2750;49.050;9.250;2023-04-03T17:29:03;99632.31;;;7.85;55.82
5455;BME280;2750;49.050;9.250;2023-04-03T17:34:05;99616.69;;;7.91;55.91
5455;BME280;2750;49.050;9.250;2023-04-03T17:39:07;99631.00;;;7.65;56.69
5455;BME280;2750;49.050;9.250;2023-04-03T17:44:09;99629.06;;;7.77;57.21
5455;BME280;2750;49.050;9.250;2023-04-03T17:49:11;99635.66;;;7.50;57.26
5455;BME280;2750;49.050;9.250;2023-04-03T17:54:15;99627.72;;;7.16;58.23
5455;BME280;2750;49.050;9.250;2023-04-03T17:59:17;99633.88;;;7.09;58.30
5455;BME280;2750;49.050;9.250;2023-04-03T18:04:18;99642.19;;;6.77;58.99
5455;BME280;2750;49.050;9.250;2023-04-03T18:09:24;99634.66;;;6.63;58.11
5455;BME280;2750;49.050;9.250;2023-04-03T18:14:27;99644.03;;;6.69;58.58
5455;BME280;2750;49.050;9.250;2023-04-03T18:19:29;99647.41;;;6.74;58.24
5455;BME280;2750;49.050;9.250;2023-04-03T18:24:32;99649.97;;;6.74;58.29
5455;BME280;2750;49.050;9.250;2023-04-03T18:29:36;99660.50;;;6.60;58.50
5455;BME280;2750;49.050;9.250;2023-04-03T18:34:39;99655.22;;;6.69;58.13
5455;BME280;2750;49.050;9.250;2023-04-03T18:39:42;99657.19;;;6.52;58.51
5455;BME280;2750;49.050;9.250;2023-04-03T18:44:45;99665.09;;;6.43;58.47
5455;BME280;2750;49.050;9.250;2023-04-03T18:49:48;99663.13;;;6.59;58.59
5455;BME280;2750;49.050;9.250;2023-04-03T18:54:52;99665.16;;;6.39;59.28
5455;BME280;2750;49.050;9.250;2023-04-03T18:59:53;99676.44;;;6.30;59.75
5455;BME280;2750;49.050;9.250;2023-04-03T19:04:55;99681.84;;;6.13;60.23
5455;BME280;2750;49.050;9.250;2023-04-03T19:09:59;99673.25;;;6.14;60.14
5455;BME280;2750;49.050;9.250;2023-04-03T19:15:00;99679.31;;;6.10;59.73
5455;BME280;2750;49.050;9.250;2023-04-03T19:20:03;99683.81;;;5.95;60.49
5455;BME280;2750;49.050;9.250;2023-04-03T19:25:08;99680.53;;;5.81;61.30
5455;BME280;2750;49.050;9.250;2023-04-03T19:30:11;99678.31;;;5.55;62.06
5455;BME280;2750;49.050;9.250;2023-04-03T19:35:12;99681.13;;;5.32;63.08
5455;BME280;2750;49.050;9.250;2023-04-03T19:40:16;99676.97;;;5.20;63.42
5455;BME280;2750;49.050;9.250;2023-04-03T19:45:18;99683.75;;;5.27;62.99
5455;BME280;2750;49.050;9.250;2023-04-03T19:50:19;99679.63;;;5.10;63.47
5455;BME280;2750;49.050;9.250;2023-04-03T19:55:22;99687.34;;;5.11;63.26
5455;BME280;2750;49.050;9.250;2023-04-03T20:00:24;99684.13;;;4.90;64.13
5455;BME280;2750;49.050;9.250;2023-04-03T20:05:26;99689.25;;;4.91;64.12
5455;BME280;2750;49.050;9.250;2023-04-03T20:10:29;99692.66;;;4.93;64.52
5455;BME280;2750;49.050;9.250;2023-04-03T20:15:30;99693.50;;;4.98;64.45
5455;BME280;2750;49.050;9.250;2023-04-03T20:20:39;99687.59;;;4.84;64.77
5455;BME280;2750;49.050;9.250;2023-04-03T20:25:44;99688.59;;;4.68;65.47
5455;BME280;2750;49.050;9.250;2023-04-03T20:30:47;99690.47;;;4.52;66.07
5455;BME280;2750;49.050;9.250;2023-04-03T20:35:51;99698.19;;;4.46;66.23
5455;BME280;2750;49.050;9.250;2023-04-03T20:40:54;99691.41;;;4.41;65.88
5455;BME280;2750;49.050;9.250;2023-04-03T20:45:58;99698.22;;;4.43;65.98
5455;BME280;2750;49.050;9.250;2023-04-03T20:51:07;99703.38;;;4.37;66.71
5455;BME280;2750;49.050;9.250;2023-04-03T20:56:12;99693.25;;;4.17;66.99
5455;BME280;2750;49.050;9.250;2023-04-03T21:01:17;99699.34;;;3.97;67.74
5455;BME280;2750;49.050;9.250;2023-04-03T21:22:40;99694.34;;;3.71;68.25
5455;BME280;2750;49.050;9.250;2023-04-03T21:27:44;99682.41;;;3.62;68.43
5455;BME280;2750;49.050;9.250;2023-04-03T21:32:45;99673.06;;;3.51;68.12
5455;BME280;2750;49.050;9.250;2023-04-03T21:37:48;99690.16;;;3.47;68.18
5455;BME280;2750;49.050;9.250;2023-04-03T21:42:52;99685.06;;;3.43;68.30
5455;BME280;2750;49.050;9.250;2023-04-03T21:47:54;99683.34;;;3.45;67.45
5455;BME280;2750;49.050;9.250;2023-04-03T21:52:57;99683.34;;;3.45;67.57
5455;BME280;2750;49.050;9.250;2023-04-03T21:57:58;99685.94;;;3.32;67.27
5455;BME280;2750;49.050;9.250;2023-04-03T22:03:00;99674.84;;;3.27;67.55
5455;BME280;2750;49.050;9.250;2023-04-03T22:08:03;99679.91;;;3.46;67.19
5455;BME280;2750;49.050;9.250;2023-04-03T22:13:06;99687.66;;;3.30;67.35
5455;BME280;2750;49.050;9.250;2023-04-03T22:18:09;99690.19;;;3.49;67.15
5455;BME280;2750;49.050;9.250;2023-04-03T22:23:12;99698.81;;;3.17;67.35
5455;BME280;2750;49.050;9.250;2023-04-03T22:28:13;99693.69;;;2.96;67.33
5455;BME280;2750;49.050;9.250;2023-04-03T22:33:15;99695.38;;;3.24;67.82
5455;BME280;2750;49.050;9.250;2023-04-03T22:38:18;99706.50;;;3.16;68.18
5455;BME280;2750;49.050;9.250;2023-04-03T22:43:20;99698.75;;;3.38;67.41
5455;BME280;2750;49.050;9.250;2023-04-03T22:48:22;99703.88;;;3.45;66.47
5455;BME280;2750;49.050;9.250;2023-04-03T22:53:25;99707.38;;;3.10;67.16
5455;BME280;2750;49.050;9.250;2023-04-03T22:58:27;99709.84;;;3.48;66.89
5455;BME280;2750;49.050;9.250;2023-04-03T23:03:29;99712.25;;;3.91;66.42
5455;BME280;2750;49.050;9.250;2023-04-03T23:08:33;99711.41;;;3.85;65.86
5455;BME280;2750;49.050;9.250;2023-04-03T23:13:35;99716.66;;;3.52;65.89
5455;BME280;2750;49.050;9.250;2023-04-03T23:18:36;99708.09;;;3.50;66.72
5455;BME280;2750;49.050;9.250;2023-04-03T23:23:40;99712.38;;;3.50;66.90
5455;BME280;2750;49.050;9.250;2023-04-03T23:28:41;99719.28;;;3.29;66.51
5455;BME280;2750;49.050;9.250;2023-04-03T23:33:43;99721.78;;;3.54;66.70
5455;BME280;2750;49.050;9.250;2023-04-03T23:38:46;99717.56;;;3.31;66.02
5455;BME280;2750;49.050;9.250;2023-04-03T23:43:47;99721.72;;;3.64;65.95
5455;BME280;2750;49.050;9.250;2023-04-03T23:48:49;99719.13;;;3.72;65.11
5455;BME280;2750;49.050;9.250;2023-04-03T23:53:52;99714.97;;;3.47;65.78
5455;BME280;2750;49.050;9.250;2023-04-03T23:58:53;99713.28;;;3.44;66.31
